Ogallala, NE

5:04 AM MDT on March 24, 2017 (GMT -0600)
Searle

Weather History for KOGA - November, 2013

Change the Weather History Date:

Sunday, November 3, 2013

  Actual Average Record
Temperature  
Mean Temperature 42 °F -  
Max Temperature 53 °F 51 °F 77 °F (1980)
Min Temperature 30 °F 26 °F 2 °F (1991)
Degree Days  
Heating Degree Days 24    
Moisture  
Dew Point 31 °F    
Average Humidity 68    
Maximum Humidity 85    
Minimum Humidity 45    
Precipitation  
Precipitation 0.00 in - - ()
Sea Level Pressure  
Sea Level Pressure 29.65 in    
Wind  
Wind Speed 5 mph (NE)    
Max Wind Speed 26 mph    
Max Gust Speed 31 mph    
Visibility 10 miles    
Events      
Averages and records for this station are not official NWS values.
T = Trace of Precipitation, MM = Missing Value Source: NWS Daily Summary

Daily Weather History Graph

Daily Weather History Graph

Search for Another Location

Airport or City:

Trip Planner

Search our weather history database for the weather conditions in past years. The results will help you decide how hot, cold, wet, or windy it might be!

Date:

Astronomy

Nov. 03, 2013 Rise Set
Actual Time 6:20 AM MST 4:39 PM MST
Civil Twilight 5:52 AM MST 5:08 PM MST
Nautical Twilight 5:19 AM MST 5:41 PM MST
Astronomical Twilight 4:47 AM MST 6:13 PM MST
Moon 6:27 AM MST (11/3) 4:56 PM MST (11/3)
Length of Visible Light 11h 16m
Length of Day
10h 19m
New Moon, 0% of the Moon is Illuminated
Nov 3
New Moon
Nov 9
First Quarter
Nov 17
Full
Nov 25
Last Quarter
Dec 2
New

Hourly Weather History & Observations

Time (MST) Temp. Windchill Dew Point Humidity Pressure Visibility Wind Dir Wind Speed Gust Speed Precip Events Conditions
12:15 AM 41.4 °F - 29.3 °F 62% 29.78 in 10.0 mi Calm Calm - N/A   Clear
12:35 AM 39.2 °F 37.0 °F 29.3 °F 68% 29.78 in 10.0 mi East 3.5 mph - N/A   Clear
12:55 AM 37.9 °F 34.4 °F 28.9 °F 70% 29.77 in 10.0 mi East 4.6 mph - N/A   Clear
1:15 AM 37.2 °F 33.6 °F 28.6 °F 71% 29.77 in 10.0 mi East 4.6 mph - N/A   Clear
1:35 AM 36.7 °F 31.2 °F 28.2 °F 71% 29.75 in 10.0 mi East 6.9 mph - N/A   Clear
1:55 AM 35.1 °F 29.3 °F 27.9 °F 75% 29.75 in 10.0 mi East 6.9 mph - N/A   Clear
1:15 AM 36.3 °F 32.5 °F 28.8 °F 74% 29.74 in 10.0 mi ESE 4.6 mph - N/A   Clear
1:35 AM 36.9 °F 33.1 °F 28.9 °F 73% 29.74 in 10.0 mi East 4.6 mph - N/A   Clear
1:55 AM 36.0 °F 32.1 °F 28.6 °F 75% 29.73 in 10.0 mi East 4.6 mph - N/A   Clear
2:15 AM 35.8 °F 31.9 °F 28.8 °F 76% 29.72 in 10.0 mi East 4.6 mph - N/A   Clear
2:35 AM 34.3 °F 28.4 °F 28.0 °F 78% 29.71 in 10.0 mi ENE 6.9 mph - N/A   Clear
2:55 AM 34.7 °F 30.6 °F 28.2 °F 77% 29.70 in 10.0 mi ESE 4.6 mph - N/A   Clear
3:15 AM 34.0 °F 31.0 °F 28.0 °F 79% 29.69 in 10.0 mi East 3.5 mph - N/A   Clear
3:35 AM 32.7 °F - 27.9 °F 82% 29.69 in 10.0 mi Calm Calm - N/A   Clear
3:55 AM 32.0 °F 28.7 °F 27.3 °F 83% 29.68 in 10.0 mi East 3.5 mph - N/A   Clear
4:15 AM 32.0 °F 28.7 °F 27.7 °F 84% 29.70 in 10.0 mi SSW 3.5 mph - N/A   Clear
4:35 AM 30.2 °F - 26.2 °F 85% 29.69 in 10.0 mi Calm Calm - N/A   Clear
4:55 AM 32.0 °F 27.5 °F 27.7 °F 84% 29.70 in 10.0 mi NNE 4.6 mph - N/A   Clear
5:15 AM 32.9 °F 26.7 °F 28.6 °F 84% 29.66 in 10.0 mi ENE 6.9 mph - N/A   Clear
5:35 AM 33.3 °F - 28.9 °F 84% 29.68 in 10.0 mi Calm Calm - N/A   Clear
5:55 AM 32.9 °F 29.8 °F 28.9 °F 85% 29.65 in 10.0 mi ENE 3.5 mph - N/A   Clear
6:15 AM 33.4 °F 30.4 °F 29.3 °F 85% 29.65 in 10.0 mi ESE 3.5 mph - N/A   Clear
6:35 AM 33.8 °F 30.8 °F 29.3 °F 84% 29.64 in 10.0 mi East 3.5 mph - N/A   Clear
6:55 AM 34.7 °F 29.6 °F 29.8 °F 82% 29.63 in 10.0 mi East 5.8 mph - N/A   Clear
7:15 AM 35.6 °F - 30.0 °F 80% 29.64 in 10.0 mi Calm Calm - N/A   Clear
7:35 AM 35.8 °F 33.0 °F 30.2 °F 80% 29.64 in 10.0 mi ESE 3.5 mph - N/A   Clear
7:55 AM 36.5 °F - 30.2 °F 78% 29.63 in 10.0 mi Calm Calm - N/A   Clear
8:15 AM 36.9 °F 32.2 °F 30.6 °F 78% 29.62 in 10.0 mi East 5.8 mph - N/A   Clear
8:35 AM 37.4 °F 32.1 °F 31.1 °F 78% 29.59 in 10.0 mi East 6.9 mph - N/A   Clear
8:55 AM 37.8 °F - 31.1 °F 77% 29.63 in 10.0 mi Calm Calm - N/A   Clear
9:15 AM 38.5 °F 36.1 °F 31.1 °F 75% 29.64 in 10.0 mi West 3.5 mph - N/A   Clear
9:35 AM 39.6 °F - 31.3 °F 72% 29.62 in 10.0 mi Calm Calm - N/A   Clear
9:55 AM 41.0 °F 39.0 °F 31.5 °F 69% 29.61 in 10.0 mi NNE 3.5 mph - N/A   Clear
10:15 AM 43.2 °F 39.7 °F 32.0 °F 65% 29.60 in 10.0 mi NNW 5.8 mph - N/A   Clear
10:35 AM 44.1 °F 39.5 °F 32.0 °F 63% 29.59 in 10.0 mi North 8.1 mph - N/A   Clear
10:55 AM 45.1 °F 41.4 °F 32.7 °F 62% 29.59 in 10.0 mi NNE 6.9 mph - N/A   Clear
11:15 AM 46.0 °F 42.5 °F 33.4 °F 61% 29.58 in 10.0 mi North 6.9 mph - N/A   Clear
11:35 AM 47.5 °F - 34.2 °F 60% 29.58 in 10.0 mi NNE 6.9 mph - N/A   Clear
11:55 AM 48.9 °F - 33.8 °F 56% 29.57 in 10.0 mi ENE 6.9 mph - N/A   Clear
12:15 PM 49.5 °F - 32.5 °F 52% 29.56 in 10.0 mi NE 8.1 mph - N/A   Clear
12:35 PM 50.2 °F - 32.5 °F 51% 29.56 in 10.0 mi NE 4.6 mph - N/A   Clear
12:55 PM 50.4 °F - 32.5 °F 50% 29.56 in 10.0 mi ESE 4.6 mph - N/A   Clear
1:15 PM 50.9 °F - 32.5 °F 49% 29.56 in 10.0 mi East 5.8 mph - N/A   Clear
1:35 PM 52.0 °F - 32.9 °F 48% 29.56 in 10.0 mi East 4.6 mph - N/A   Clear
1:55 PM 52.0 °F - 32.7 °F 48% 29.57 in 10.0 mi ESE 9.2 mph - N/A   Clear
2:15 PM 52.7 °F - 32.5 °F 46% 29.57 in 10.0 mi East 8.1 mph - N/A   Clear
2:35 PM 53.1 °F - 32.4 °F 45% 29.57 in 10.0 mi East 4.6 mph - N/A   Clear
2:55 PM 53.8 °F - 32.5 °F 45% 29.57 in 10.0 mi SE 8.1 mph - N/A   Clear
3:15 PM 53.2 °F - 32.5 °F 45% 29.57 in 10.0 mi ESE 4.6 mph - N/A   Clear
3:35 PM 53.2 °F - 32.7 °F 46% 29.57 in 10.0 mi SE 6.9 mph - N/A   Clear
3:55 PM 52.3 °F - 32.9 °F 48% 29.57 in 10.0 mi ESE 3.5 mph - N/A   Clear
4:15 PM 51.8 °F - 33.3 °F 49% 29.57 in 10.0 mi Calm Calm - N/A   Clear
4:35 PM 50.4 °F - 33.3 °F 52% 29.58 in 10.0 mi Calm Calm - N/A   Clear
4:55 PM 42.6 °F 39.9 °F 31.1 °F 64% 29.59 in 10.0 mi North 4.6 mph - N/A   Clear
5:15 PM 40.3 °F 36.3 °F 30.0 °F 67% 29.61 in 10.0 mi NNW 5.8 mph - N/A   Clear
5:35 PM 39.6 °F 36.3 °F 30.7 °F 71% 29.61 in 10.0 mi North 4.6 mph - N/A   Clear
5:55 PM 38.3 °F 33.9 °F 30.0 °F 72% 29.61 in 10.0 mi North 5.8 mph - N/A   Clear
6:15 PM 37.4 °F 32.8 °F 29.8 °F 74% 29.62 in 10.0 mi NW 5.8 mph - N/A   Clear
6:35 PM 36.7 °F - 29.7 °F 76% 29.63 in 10.0 mi Calm Calm - N/A   Clear
6:55 PM 37.6 °F - 30.4 °F 75% 29.64 in 10.0 mi Calm Calm - N/A   Clear
7:15 PM 39.0 °F - 30.4 °F 71% 29.65 in 10.0 mi Calm Calm - N/A   Clear
7:35 PM 42.3 °F 38.6 °F 32.0 °F 67% 29.65 in 10.0 mi NNW 5.8 mph - N/A   Clear
7:55 PM 45.1 °F 38.8 °F 32.7 °F 62% 29.67 in 10.0 mi NNW 13.8 mph - N/A   Clear
8:15 PM 46.2 °F 38.3 °F 33.4 °F 61% 29.67 in 10.0 mi North 21.9 mph - N/A   Clear
8:35 PM 44.8 °F 36.9 °F 33.8 °F 65% 29.68 in 10.0 mi North 19.6 mph 24.2 mph N/A   Clear
8:55 PM 44.6 °F 36.6 °F 35.2 °F 70% 29.69 in 10.0 mi North 19.6 mph 25.3 mph N/A   Clear
9:15 PM 44.1 °F 35.9 °F 35.6 °F 72% 29.69 in 10.0 mi North 19.6 mph 25.3 mph N/A   Clear
9:35 PM 44.2 °F 35.9 °F 35.8 °F 72% 29.70 in 10.0 mi North 20.7 mph 25.3 mph N/A   Clear
9:55 PM 44.4 °F 35.7 °F 36.1 °F 73% 29.72 in 10.0 mi North 23.0 mph 26.5 mph N/A   Clear
10:15 PM 44.2 °F 35.7 °F 36.0 °F 73% 29.73 in 10.0 mi NNW 21.9 mph 26.5 mph N/A   Scattered Clouds
10:35 PM 44.6 °F 35.3 °F 35.6 °F 71% 29.73 in 10.0 mi North 26.5 mph 31.1 mph N/A   Clear
10:55 PM 44.6 °F 36.6 °F 35.6 °F 71% 29.75 in 10.0 mi North 19.6 mph 25.3 mph N/A   Scattered Clouds